Time;durP1;ratioP1;P1;durP2;ratioP2;P2;SDS_P1;SDS_P2;PMS_P1;PMS_P2;Temp;Humidity;BMP_temperature;BMP_pressure;BME280_temperature;BME280_humidity;BME280_pressure;Samples;Min_cycle;Max_cycle;Signal;HPM_P1;HPM_P2
2021/01/06 00:00:59;;;;;;;24.73;18.70;;;3.70;99.90;;;;;;5068241;28;21021;-66
2021/01/06 00:03:27;;;;;;;22.10;16.07;;;3.70;99.90;;;;;;5067826;28;20651;-66
2021/01/06 00:05:57;;;;;;;22.63;16.93;;;3.80;99.90;;;;;;5066986;28;20496;-66
2021/01/06 00:08:24;;;;;;;19.30;15.60;;;3.80;99.90;;;;;;5061623;28;20864;-66
2021/01/06 00:10:58;;;;;;;21.03;15.90;;;3.80;99.90;;;;;;5066285;28;20634;-66
2021/01/06 00:13:24;;;;;;;21.00;16.80;;;3.80;99.90;;;;;;5067571;28;20441;-66
2021/01/06 00:15:50;;;;;;;22.30;15.90;;;3.80;99.90;;;;;;5068060;28;20514;-66
2021/01/06 00:18:17;;;;;;;18.80;14.90;;;3.80;99.90;;;;;;5065866;28;20513;-66
2021/01/06 00:20:42;;;;;;;15.93;12.93;;;3.80;99.90;;;;;;5067018;28;20191;-66
2021/01/06 00:23:08;;;;;;;16.13;12.80;;;3.80;99.90;;;;;;5068503;28;20487;-66
2021/01/06 00:25:36;;;;;;;18.47;14.33;;;3.80;99.90;;;;;;5066249;28;20222;-66
2021/01/06 00:28:04;;;;;;;16.50;13.50;;;3.90;99.90;;;;;;5063535;28;20283;-66
2021/01/06 00:30:36;;;;;;;14.07;11.93;;;3.90;99.90;;;;;;5067733;28;20457;-67
2021/01/06 00:33:07;;;;;;;16.80;13.70;;;3.90;99.90;;;;;;5066826;28;20469;-66
2021/01/06 00:35:33;;;;;;;17.50;13.43;;;4.00;99.90;;;;;;5064825;28;20456;-66
2021/01/06 00:37:59;;;;;;;19.73;13.77;;;4.00;99.90;;;;;;5064376;28;20487;-66
2021/01/06 00:40:31;;;;;;;15.73;12.87;;;4.00;99.90;;;;;;5068687;28;20207;-66
2021/01/06 00:42:59;;;;;;;16.10;14.00;;;4.00;99.90;;;;;;5065611;28;20241;-66
2021/01/06 00:45:25;;;;;;;15.97;13.10;;;4.00;99.90;;;;;;5061028;28;20437;-66
2021/01/06 00:47:51;;;;;;;16.90;13.50;;;4.00;99.90;;;;;;5065039;28;20977;-66
2021/01/06 00:50:22;;;;;;;16.50;13.50;;;4.00;99.90;;;;;;5064956;28;20471;-66
2021/01/06 00:52:48;;;;;;;17.60;14.83;;;4.00;99.90;;;;;;5068876;28;20683;-66
2021/01/06 00:55:14;;;;;;;17.80;15.40;;;4.00;99.90;;;;;;5063699;28;20445;-66
2021/01/06 00:57:39;;;;;;;17.00;13.67;;;4.00;99.90;;;;;;5066518;28;20636;-66
2021/01/06 01:00:13;;;;;;;19.57;15.10;;;4.00;99.90;;;;;;5067422;28;20991;-66
2021/01/06 01:02:39;;;;;;;16.50;13.73;;;4.10;99.90;;;;;;5063464;28;20214;-66
2021/01/06 01:05:05;;;;;;;15.73;12.90;;;4.10;99.90;;;;;;5068227;28;20441;-66
2021/01/06 01:07:31;;;;;;;16.37;13.37;;;4.10;99.90;;;;;;5065675;28;20195;-66
2021/01/06 01:09:56;;;;;;;15.40;12.90;;;4.10;99.90;;;;;;5069069;28;20548;-66
2021/01/06 01:12:22;;;;;;;13.20;11.07;;;4.10;99.90;;;;;;5067274;28;22239;-66
2021/01/06 01:14:49;;;;;;;16.30;13.13;;;4.10;99.90;;;;;;5066448;28;20241;-66
2021/01/06 01:17:15;;;;;;;16.13;13.83;;;4.20;99.90;;;;;;5063011;28;20735;-66
2021/01/06 01:19:41;;;;;;;14.93;12.47;;;4.10;99.90;;;;;;5066495;28;20941;-66
2021/01/06 01:22:07;;;;;;;15.63;12.47;;;4.10;99.90;;;;;;5067586;28;20495;-66
2021/01/06 01:24:33;;;;;;;16.10;12.50;;;4.10;99.90;;;;;;5065899;28;20810;-66
2021/01/06 01:26:58;;;;;;;17.20;13.20;;;4.10;99.90;;;;;;5061929;28;20457;-66
2021/01/06 01:29:24;;;;;;;13.37;11.93;;;4.10;99.90;;;;;;5068938;28;20211;-66
2021/01/06 01:31:49;;;;;;;15.60;12.97;;;4.20;99.90;;;;;;5065695;28;20214;-66
2021/01/06 01:34:15;;;;;;;14.60;12.60;;;4.20;99.90;;;;;;5066040;28;20179;-66
2021/01/06 01:36:50;;;;;;;16.10;13.43;;;4.20;99.90;;;;;;5064994;28;20196;-66
2021/01/06 01:39:18;;;;;;;14.77;11.97;;;4.20;99.90;;;;;;5067924;28;20207;-66
2021/01/06 01:41:44;;;;;;;15.17;12.33;;;4.20;99.90;;;;;;5067835;28;20926;-66
2021/01/06 01:44:14;;;;;;;18.40;13.43;;;4.20;99.90;;;;;;5066902;28;20449;-66
2021/01/06 01:47:08;;;;;;;14.17;12.70;;;4.20;99.90;;;;;;5067190;28;20433;-66
2021/01/06 01:49:47;;;;;;;13.73;11.40;;;4.20;99.90;;;;;;5062280;28;20495;-66
2021/01/06 01:52:38;;;;;;;14.90;12.03;;;4.20;99.90;;;;;;5060380;28;20590;-66
2021/01/06 01:55:05;;;;;;;14.93;13.40;;;4.20;99.90;;;;;;5065129;28;20429;-66
2021/01/06 01:57:36;;;;;;;17.40;12.40;;;4.20;99.90;;;;;;5067467;28;20448;-66
2021/01/06 02:00:10;;;;;;;13.37;10.77;;;4.20;99.90;;;;;;5066286;28;20438;-66
2021/01/06 02:03:00;;;;;;;14.50;12.33;;;4.20;99.90;;;;;;5065481;28;20442;-66
2021/01/06 02:05:53;;;;;;;14.17;11.27;;;4.30;99.90;;;;;;5062556;28;20430;-66
2021/01/06 02:08:25;;;;;;;15.10;12.20;;;4.30;99.90;;;;;;5033279;28;20441;-66
2021/01/06 02:11:01;;;;;;;14.10;12.27;;;4.20;99.90;;;;;;5065312;28;20498;-66
2021/01/06 02:13:43;;;;;;;12.83;11.53;;;4.20;99.90;;;;;;5066240;28;20529;-66
2021/01/06 02:16:31;;;;;;;14.60;11.97;;;4.20;99.90;;;;;;5065108;28;20441;-66
2021/01/06 02:18:57;;;;;;;14.80;12.37;;;4.20;99.90;;;;;;5064712;28;20441;-66
2021/01/06 02:21:26;;;;;;;16.63;12.30;;;4.20;99.90;;;;;;5064762;28;20760;-65
2021/01/06 02:23:55;;;;;;;15.00;12.40;;;4.30;99.90;;;;;;5066377;28;20520;-65
2021/01/06 02:26:22;;;;;;;14.57;12.23;;;4.30;99.90;;;;;;5059593;28;20450;-65
2021/01/06 02:28:48;;;;;;;14.60;12.57;;;4.30;99.90;;;;;;5064324;28;20534;-65
2021/01/06 02:31:16;;;;;;;12.63;11.30;;;4.30;99.90;;;;;;5065376;28;20805;-65
2021/01/06 02:33:42;;;;;;;13.90;12.50;;;4.30;99.90;;;;;;5057717;28;20438;-65
2021/01/06 02:36:09;;;;;;;14.70;11.97;;;4.30;99.90;;;;;;5062263;28;20445;-65
2021/01/06 02:38:35;;;;;;;14.47;11.80;;;4.30;99.90;;;;;;5067820;28;20186;-65
2021/01/06 02:41:01;;;;;;;14.20;11.73;;;4.30;99.90;;;;;;5060615;28;20437;-65
2021/01/06 02:43:28;;;;;;;14.27;12.77;;;4.30;99.90;;;;;;5062490;28;20199;-65
2021/01/06 02:45:55;;;;;;;14.03;11.67;;;4.30;99.90;;;;;;5063080;28;20788;-65
2021/01/06 02:48:21;;;;;;;15.20;12.20;;;4.30;99.90;;;;;;5062367;28;20437;-65
2021/01/06 02:50:50;;;;;;;17.17;13.27;;;4.30;99.90;;;;;;5066877;28;20469;-65
2021/01/06 02:53:31;;;;;;;15.17;11.80;;;4.30;99.90;;;;;;5065321;28;20430;-65
2021/01/06 02:55:57;;;;;;;13.90;11.73;;;4.30;99.90;;;;;;5063787;28;20441;-66
2021/01/06 02:58:24;;;;;;;13.87;12.40;;;4.30;99.90;;;;;;5065410;28;20443;-65
2021/01/06 03:00:52;;;;;;;13.60;11.90;;;4.40;99.90;;;;;;5063517;28;20491;-65
2021/01/06 03:03:19;;;;;;;15.87;13.17;;;4.40;99.90;;;;;;5063769;28;20667;-65
2021/01/06 03:05:54;;;;;;;14.23;12.67;;;4.40;99.90;;;;;;5063632;28;20449;-65
2021/01/06 03:08:19;;;;;;;14.17;12.57;;;4.40;99.90;;;;;;5044623;28;20438;-65
2021/01/06 03:10:45;;;;;;;15.90;14.17;;;4.40;99.90;;;;;;5062124;28;20507;-65
2021/01/06 03:13:11;;;;;;;14.57;12.50;;;4.40;99.90;;;;;;5064396;28;20191;-65
2021/01/06 03:15:37;;;;;;;15.93;11.87;;;4.40;99.90;;;;;;5062715;28;20552;-65
2021/01/06 03:18:03;;;;;;;14.83;13.33;;;4.40;99.90;;;;;;5065193;28;20191;-65
2021/01/06 03:20:40;;;;;;;16.97;13.50;;;4.40;99.90;;;;;;5065469;28;20434;-65
2021/01/06 03:23:12;;;;;;;13.40;12.00;;;4.40;99.90;;;;;;5063605;28;20969;-65
2021/01/06 03:25:40;;;;;;;18.80;12.83;;;4.40;99.90;;;;;;5070566;28;20965;-65
2021/01/06 03:28:06;;;;;;;13.90;11.87;;;4.40;99.90;;;;;;5065636;28;20437;-65
2021/01/06 03:30:34;;;;;;;13.43;12.03;;;4.40;99.90;;;;;;5066925;28;21029;-65
2021/01/06 03:33:19;;;;;;;16.90;12.97;;;4.40;99.90;;;;;;5069391;28;20199;-65
2021/01/06 03:35:52;;;;;;;14.03;12.17;;;4.40;99.90;;;;;;5069551;28;20445;-66
2021/01/06 03:38:30;;;;;;;14.93;12.03;;;4.30;99.90;;;;;;5065515;28;20445;-66
2021/01/06 03:40:56;;;;;;;15.40;12.00;;;4.30;99.90;;;;;;5060679;28;20892;-65
2021/01/06 03:43:26;;;;;;;14.60;11.40;;;4.30;99.90;;;;;;5068758;28;20465;-65
2021/01/06 03:45:57;;;;;;;14.07;11.30;;;4.30;99.90;;;;;;5049442;28;20442;-65
2021/01/06 03:48:45;;;;;;;11.10;9.93;;;4.30;99.90;;;;;;5065976;28;20475;-65
2021/01/06 03:51:20;;;;;;;12.47;11.17;;;4.30;99.90;;;;;;5067446;28;20840;-65
2021/01/06 03:53:49;;;;;;;12.67;10.80;;;4.30;99.90;;;;;;5067621;28;20437;-65
2021/01/06 03:56:40;;;;;;;10.70;9.20;;;4.30;99.90;;;;;;5070797;28;20441;-65
2021/01/06 03:59:18;;;;;;;12.07;8.90;;;4.30;99.90;;;;;;5064662;28;20790;-64
2021/01/06 04:01:47;;;;;;;11.03;9.83;;;4.30;99.90;;;;;;5068792;28;21007;-64
2021/01/06 04:04:28;;;;;;;11.63;10.30;;;4.30;99.90;;;;;;5066451;28;20476;-65
2021/01/06 04:06:55;;;;;;;13.00;11.10;;;4.30;99.90;;;;;;5068744;28;20532;-65
2021/01/06 04:09:46;;;;;;;12.80;8.70;;;4.20;99.90;;;;;;5050419;28;20468;-65
2021/01/06 04:12:16;;;;;;;11.70;9.97;;;4.20;99.90;;;;;;5070681;28;20449;-65
2021/01/06 04:14:42;;;;;;;10.47;9.37;;;4.20;99.90;;;;;;5067860;28;20771;-64
2021/01/06 04:17:29;;;;;;;17.53;10.13;;;4.20;99.90;;;;;;5049551;28;20446;-65
2021/01/06 04:20:07;;;;;;;11.50;10.37;;;4.20;99.90;;;;;;5065928;28;20952;-65
2021/01/06 04:22:46;;;;;;;10.00;9.00;;;4.20;99.90;;;;;;5066784;28;20449;-65
2021/01/06 04:25:21;;;;;;;12.73;10.40;;;4.20;99.90;;;;;;5062246;28;20506;-65
2021/01/06 04:27:53;;;;;;;12.97;10.60;;;4.30;99.90;;;;;;5043200;28;20433;-65
2021/01/06 04:30:32;;;;;;;12.20;9.97;;;4.30;99.90;;;;;;5067096;28;20477;-65
2021/01/06 04:33:00;;;;;;;11.33;10.23;;;4.20;99.90;;;;;;5070397;28;20456;-65
2021/01/06 04:35:29;;;;;;;10.90;9.80;;;4.20;99.90;;;;;;5066204;28;20465;-65
2021/01/06 04:37:56;;;;;;;11.03;9.83;;;4.20;99.90;;;;;;5068313;28;20468;-65
2021/01/06 04:40:26;;;;;;;10.77;9.67;;;4.20;99.90;;;;;;5066973;28;20511;-65
2021/01/06 04:42:51;;;;;;;11.30;9.83;;;4.20;99.90;;;;;;5067541;28;20505;-65
2021/01/06 04:45:27;;;;;;;13.50;9.57;;;4.20;99.90;;;;;;5066616;28;20887;-65
2021/01/06 04:48:17;;;;;;;13.07;11.17;;;4.20;99.90;;;;;;5067487;28;20187;-65
2021/01/06 04:51:04;;;;;;;11.80;10.30;;;4.20;99.90;;;;;;5068745;28;20815;-64
2021/01/06 04:53:50;;;;;;;15.70;11.10;;;4.20;99.90;;;;;;5070072;28;20887;-65
2021/01/06 04:56:50;;;;;;;11.70;10.13;;;4.20;99.90;;;;;;5064958;28;20441;-64
2021/01/06 04:59:53;;;;;;;12.90;10.70;;;4.20;99.90;;;;;;5069026;28;20538;-64
2021/01/06 05:02:50;;;;;;;11.23;9.90;;;4.20;99.90;;;;;;5068263;28;20429;-64
2021/01/06 05:05:44;;;;;;;11.30;9.93;;;4.20;99.90;;;;;;5068081;28;20458;-65
2021/01/06 05:08:32;;;;;;;10.93;9.77;;;4.20;99.90;;;;;;5063052;28;20438;-65
2021/01/06 05:11:27;;;;;;;12.47;10.33;;;4.30;99.90;;;;;;5061491;28;20474;-65
2021/01/06 05:14:18;;;;;;;13.07;11.13;;;4.30;99.90;;;;;;5067895;28;20474;-65
2021/01/06 05:16:46;;;;;;;12.80;10.57;;;4.30;99.90;;;;;;5064858;28;20449;-64
2021/01/06 05:19:23;;;;;;;11.57;10.37;;;4.30;99.90;;;;;;5067900;28;20911;-65
2021/01/06 05:21:50;;;;;;;13.10;11.57;;;4.20;99.90;;;;;;5063070;28;21086;-65
2021/01/06 05:24:37;;;;;;;15.00;12.43;;;4.20;99.90;;;;;;5067016;28;20449;-65
2021/01/06 05:27:12;;;;;;;12.60;11.30;;;4.20;99.90;;;;;;5063049;28;20441;-64
2021/01/06 05:29:38;;;;;;;13.70;12.30;;;4.20;99.90;;;;;;5065247;28;20829;-65
2021/01/06 05:32:04;;;;;;;11.93;10.53;;;4.20;99.90;;;;;;5068490;28;20472;-65
2021/01/06 05:34:29;;;;;;;12.87;11.50;;;4.20;99.90;;;;;;5059655;28;20434;-65
2021/01/06 05:36:55;;;;;;;14.17;12.67;;;4.20;99.90;;;;;;5067621;28;20465;-65
2021/01/06 05:39:28;;;;;;;14.80;11.67;;;4.20;99.90;;;;;;5065240;28;20268;-64
2021/01/06 05:42:13;;;;;;;11.43;10.23;;;4.10;99.90;;;;;;5068467;28;20513;-65
2021/01/06 05:44:38;;;;;;;12.93;11.60;;;4.10;99.90;;;;;;5064069;28;20706;-65
2021/01/06 05:47:18;;;;;;;12.43;10.97;;;4.10;99.90;;;;;;5065230;28;20450;-65
2021/01/06 05:49:44;;;;;;;12.77;11.30;;;4.10;99.90;;;;;;5065190;28;20314;-65
2021/01/06 05:52:14;;;;;;;14.23;12.13;;;4.10;99.90;;;;;;5066054;28;20457;-65
2021/01/06 05:54:48;;;;;;;14.80;13.00;;;4.10;99.90;;;;;;5068632;28;20438;-64
2021/01/06 05:57:38;;;;;;;13.97;12.50;;;4.10;99.90;;;;;;5058912;28;20445;-64
2021/01/06 06:00:25;;;;;;;11.87;10.50;;;4.10;99.90;;;;;;5064131;28;20442;-64
2021/01/06 06:03:25;;;;;;;11.90;10.70;;;4.10;99.90;;;;;;5067290;28;20510;-65
2021/01/06 06:06:04;;;;;;;12.57;11.30;;;4.10;99.90;;;;;;5063333;28;20453;-65
2021/01/06 06:08:45;;;;;;;12.30;11.00;;;4.10;99.90;;;;;;5066929;28;20441;-65
2021/01/06 06:11:38;;;;;;;13.90;11.90;;;4.10;99.90;;;;;;5063209;28;20470;-65
2021/01/06 06:14:27;;;;;;;13.83;10.93;;;4.10;99.90;;;;;;5066551;28;20880;-65
2021/01/06 06:17:15;;;;;;;12.07;10.77;;;4.10;99.90;;;;;;5067109;28;20941;-65
2021/01/06 06:19:59;;;;;;;14.03;11.17;;;4.10;99.90;;;;;;5043622;28;20819;-65
2021/01/06 06:22:30;;;;;;;14.00;12.00;;;4.10;99.90;;;;;;5067216;28;20437;-66
2021/01/06 06:25:15;;;;;;;14.97;11.67;;;4.10;99.90;;;;;;5064382;28;20449;-65
2021/01/06 06:28:09;;;;;;;12.83;11.50;;;4.10;99.90;;;;;;5059995;28;20445;-65
2021/01/06 06:30:53;;;;;;;19.60;13.23;;;4.10;99.90;;;;;;5064797;28;20843;-65
2021/01/06 06:33:26;;;;;;;18.13;12.53;;;4.10;99.90;;;;;;5058361;28;20446;-65
2021/01/06 06:35:54;;;;;;;14.33;12.83;;;4.10;99.90;;;;;;5059825;28;20638;-66
2021/01/06 06:38:52;;;;;;;14.50;13.00;;;4.10;99.90;;;;;;5066586;28;20442;-66
2021/01/06 06:41:29;;;;;;;15.40;13.83;;;4.10;99.90;;;;;;5060768;28;20449;-65
2021/01/06 06:44:43;;;;;;;16.00;13.77;;;4.00;99.90;;;;;;5063036;28;20437;-65
2021/01/06 06:47:12;;;;;;;16.17;14.47;;;4.10;99.90;;;;;;5036746;28;20453;-65
2021/01/06 06:49:50;;;;;;;16.70;14.93;;;4.10;99.90;;;;;;5062710;28;20468;-65
2021/01/06 06:52:25;;;;;;;18.27;16.27;;;4.10;99.90;;;;;;5061701;28;20445;-65
2021/01/06 06:55:28;;;;;;;18.00;15.60;;;4.10;99.90;;;;;;5062986;28;20529;-66
2021/01/06 06:58:29;;;;;;;18.30;15.47;;;4.10;99.90;;;;;;5064715;28;20437;-66
2021/01/06 07:00:56;;;;;;;19.37;16.20;;;4.10;99.90;;;;;;5061672;28;20450;-66
2021/01/06 07:03:27;;;;;;;21.80;17.60;;;4.00;99.90;;;;;;5065512;28;20802;-66
2021/01/06 07:05:59;;;;;;;18.23;15.77;;;4.00;99.90;;;;;;5062824;28;20481;-66
2021/01/06 07:08:32;;;;;;;21.43;17.80;;;4.10;99.90;;;;;;5060659;28;20536;-66
2021/01/06 07:11:16;;;;;;;20.90;17.03;;;4.10;99.90;;;;;;5063461;28;20497;-66
2021/01/06 07:13:43;;;;;;;19.60;17.27;;;4.10;99.90;;;;;;5065008;28;20441;-66
2021/01/06 07:16:20;;;;;;;20.60;17.50;;;4.10;99.90;;;;;;5064226;28;20444;-66
2021/01/06 07:18:51;;;;;;;21.47;17.60;;;4.10;99.90;;;;;;5063780;28;20448;-66
2021/01/06 07:21:22;;;;;;;23.77;19.73;;;4.10;99.90;;;;;;5063936;28;20449;-66
2021/01/06 07:23:53;;;;;;;21.10;18.20;;;4.10;99.90;;;;;;5034385;28;20479;-66
2021/01/06 07:26:27;;;;;;;20.87;17.80;;;4.10;99.90;;;;;;5058895;28;20567;-66
2021/01/06 07:29:04;;;;;;;24.40;18.10;;;4.10;99.90;;;;;;5064115;28;20937;-66
2021/01/06 07:31:39;;;;;;;21.60;18.83;;;4.10;99.90;;;;;;5064885;28;20497;-65
2021/01/06 07:34:07;;;;;;;20.27;18.17;;;4.20;99.90;;;;;;5057384;28;20444;-66
2021/01/06 07:36:46;;;;;;;22.10;18.57;;;4.10;99.90;;;;;;5059802;28;20433;-66
2021/01/06 07:39:25;;;;;;;21.80;18.40;;;4.20;99.90;;;;;;5033792;28;20481;-66
2021/01/06 07:41:51;;;;;;;24.13;19.57;;;4.20;99.90;;;;;;5058180;28;20488;-66
2021/01/06 07:44:27;;;;;;;25.53;18.57;;;4.10;99.90;;;;;;5066397;28;20807;-65
2021/01/06 07:47:08;;;;;;;22.97;18.43;;;4.10;99.90;;;;;;5066989;28;20942;-66
2021/01/06 07:49:45;;;;;;;23.03;19.57;;;4.10;99.90;;;;;;5061517;28;20437;-66
2021/01/06 07:52:48;;;;;;;23.03;19.50;;;4.10;99.90;;;;;;5061260;28;20857;-66
2021/01/06 07:55:29;;;;;;;26.77;20.73;;;4.10;99.90;;;;;;5062458;28;20812;-66
2021/01/06 07:58:26;;;;;;;25.53;20.77;;;4.10;99.90;;;;;;5060497;28;20457;-66
2021/01/06 08:00:55;;;;;;;27.50;21.33;;;4.10;99.90;;;;;;5063917;28;20441;-66
2021/01/06 08:03:25;;;;;;;27.53;21.10;;;4.10;99.90;;;;;;5062813;28;20793;-66
2021/01/06 08:05:59;;;;;;;26.87;21.93;;;4.10;99.90;;;;;;5064172;28;20442;-66
2021/01/06 08:08:27;;;;;;;28.53;22.20;;;4.10;99.90;;;;;;5062129;28;20480;-66
2021/01/06 08:11:05;;;;;;;27.60;22.00;;;4.10;99.90;;;;;;5068914;28;20473;-65
2021/01/06 08:13:34;;;;;;;25.87;20.30;;;4.10;99.90;;;;;;5037216;28;20532;-66
2021/01/06 08:16:06;;;;;;;30.87;21.87;;;4.10;99.90;;;;;;5068775;28;20521;-66
2021/01/06 08:18:57;;;;;;;27.00;20.83;;;4.10;99.90;;;;;;5066590;28;20434;-66
2021/01/06 08:21:25;;;;;;;29.00;20.93;;;4.10;99.90;;;;;;5070243;28;20921;-66
2021/01/06 08:24:18;;;;;;;28.70;21.67;;;4.10;99.90;;;;;;5067228;28;20437;-66
2021/01/06 08:26:52;;;;;;;29.13;22.23;;;4.10;99.90;;;;;;5064686;28;20901;-66
2021/01/06 08:29:28;;;;;;;30.03;22.10;;;4.10;99.90;;;;;;5065814;28;20437;-66
2021/01/06 08:32:19;;;;;;;29.57;22.83;;;4.10;99.90;;;;;;5060701;28;20433;-66
2021/01/06 08:34:59;;;;;;;26.43;20.47;;;4.10;99.90;;;;;;5060682;28;20429;-66
2021/01/06 08:37:31;;;;;;;29.23;20.90;;;4.10;99.90;;;;;;5069283;28;20434;-66
2021/01/06 08:39:57;;;;;;;30.93;23.23;;;4.10;99.90;;;;;;5068237;28;20465;-66
2021/01/06 08:42:27;;;;;;;28.73;22.10;;;4.10;99.90;;;;;;5069534;28;20442;-66
2021/01/06 08:44:58;;;;;;;28.73;21.33;;;4.10;99.90;;;;;;5064175;28;20528;-66
2021/01/06 08:47:32;;;;;;;28.63;21.63;;;4.10;99.90;;;;;;5068527;28;20430;-66
2021/01/06 08:50:16;;;;;;;29.03;22.97;;;4.10;99.90;;;;;;5063409;28;20457;-66
2021/01/06 08:52:48;;;;;;;31.83;23.87;;;4.10;99.90;;;;;;5069685;28;20528;-66
2021/01/06 08:55:33;;;;;;;26.63;20.60;;;4.10;99.90;;;;;;5065426;28;20418;-66
2021/01/06 08:58:05;;;;;;;29.17;22.47;;;4.10;99.90;;;;;;5068393;28;20497;-65
2021/01/06 09:00:51;;;;;;;26.27;20.47;;;4.10;99.90;;;;;;5064867;28;21126;-66
2021/01/06 09:03:27;;;;;;;25.97;19.73;;;4.10;99.90;;;;;;5062488;28;20554;-66
2021/01/06 09:06:02;;;;;;;30.03;22.50;;;4.10;99.90;;;;;;5061953;28;20433;-66
2021/01/06 09:08:55;;;;;;;27.53;20.47;;;4.10;99.90;;;;;;5064090;28;20516;-66
2021/01/06 09:11:25;;;;;;;25.43;20.20;;;4.20;99.90;;;;;;5040789;28;21078;-66
2021/01/06 09:14:09;;;;;;;27.23;19.17;;;4.20;99.90;;;;;;5067737;28;20961;-66
2021/01/06 09:16:49;;;;;;;27.30;21.60;;;4.20;99.90;;;;;;5066354;28;20441;-66
2021/01/06 09:19:26;;;;;;;27.10;21.07;;;4.20;99.90;;;;;;5067022;28;20950;-66
2021/01/06 09:21:53;;;;;;;24.83;19.43;;;4.30;99.90;;;;;;5059826;28;20774;-66
2021/01/06 09:24:25;;;;;;;24.00;18.87;;;4.30;99.90;;;;;;5062706;28;20515;-66
2021/01/06 09:27:12;;;;;;;24.47;19.13;;;4.30;99.90;;;;;;5057041;28;20438;-66
2021/01/06 09:29:39;;;;;;;23.97;18.77;;;4.40;99.90;;;;;;5063049;28;20430;-66
2021/01/06 09:32:12;;;;;;;19.47;16.47;;;4.40;99.90;;;;;;5037214;28;20445;-65
2021/01/06 09:34:49;;;;;;;20.90;16.43;;;4.40;99.90;;;;;;5065788;28;20826;-66
2021/01/06 09:37:21;;;;;;;21.17;16.13;;;4.40;99.90;;;;;;5067269;28;21118;-66
2021/01/06 09:39:47;;;;;;;18.10;15.33;;;4.40;99.90;;;;;;5068390;28;20476;-66
2021/01/06 09:42:14;;;;;;;18.63;15.03;;;4.30;99.90;;;;;;5063927;28;20445;-65
2021/01/06 09:44:40;;;;;;;15.80;13.40;;;4.30;99.90;;;;;;5066102;28;20434;-66
2021/01/06 09:47:21;;;;;;;16.33;14.50;;;4.30;99.90;;;;;;5065733;28;21034;-66
2021/01/06 09:49:59;;;;;;;18.47;14.23;;;4.30;99.90;;;;;;5065020;28;20215;-66
2021/01/06 09:52:46;;;;;;;19.20;15.60;;;4.30;99.90;;;;;;5064907;28;20448;-66
2021/01/06 09:55:23;;;;;;;20.50;15.07;;;4.40;99.90;;;;;;5066306;28;20437;-66
2021/01/06 09:58:07;;;;;;;21.70;17.07;;;4.40;99.90;;;;;;5064830;28;20559;-66
2021/01/06 10:00:55;;;;;;;21.77;17.60;;;4.40;99.90;;;;;;5068321;28;20525;-66
2021/01/06 10:03:21;;;;;;;24.53;18.07;;;4.40;99.90;;;;;;5062597;28;20517;-66
2021/01/06 10:05:59;;;;;;;26.67;20.60;;;4.30;99.90;;;;;;5061830;28;20529;-66
2021/01/06 10:08:47;;;;;;;28.40;21.30;;;4.30;99.90;;;;;;5056486;28;20972;-66
2021/01/06 10:11:29;;;;;;;25.20;20.30;;;4.30;99.90;;;;;;5067223;28;20469;-65
2021/01/06 10:14:33;;;;;;;28.27;22.07;;;4.30;99.90;;;;;;5066044;28;20872;-66
2021/01/06 10:17:25;;;;;;;29.00;22.27;;;4.30;99.90;;;;;;5062690;28;20442;-66
2021/01/06 10:19:55;;;;;;;29.93;21.37;;;4.20;99.90;;;;;;5066302;28;20441;-66
2021/01/06 10:22:48;;;;;;;30.40;21.53;;;4.20;99.90;;;;;;5063037;28;20968;-66
2021/01/06 10:25:44;;;;;;;27.77;20.40;;;4.20;99.90;;;;;;5056173;28;20968;-66
2021/01/06 10:28:19;;;;;;;26.80;20.57;;;4.30;99.90;;;;;;5063587;28;21056;-66
2021/01/06 10:31:16;;;;;;;26.70;21.27;;;4.20;99.90;;;;;;5064459;28;20469;-66
2021/01/06 10:34:09;;;;;;;25.07;20.70;;;4.20;99.90;;;;;;5061876;28;20466;-66
2021/01/06 10:37:05;;;;;;;26.67;21.27;;;4.20;99.90;;;;;;5060332;28;21005;-66
2021/01/06 10:39:42;;;;;;;21.77;18.33;;;4.30;99.90;;;;;;5048923;28;20461;-66
2021/01/06 10:42:32;;;;;;;22.97;18.13;;;4.30;99.90;;;;;;5063668;28;20808;-66
2021/01/06 10:45:07;;;;;;;22.70;19.00;;;4.40;99.90;;;;;;5062443;28;20958;-66
2021/01/06 10:47:33;;;;;;;24.47;19.63;;;4.40;99.90;;;;;;5062383;28;20928;-66
2021/01/06 10:50:13;;;;;;;26.10;19.07;;;4.40;99.90;;;;;;5062804;28;20446;-66
2021/01/06 10:53:09;;;;;;;22.80;18.97;;;4.40;99.90;;;;;;5063051;28;20198;-65
2021/01/06 10:55:53;;;;;;;22.37;18.03;;;4.50;99.90;;;;;;5060756;28;20421;-65
2021/01/06 10:58:51;;;;;;;20.37;17.60;;;4.50;99.90;;;;;;5064914;28;20476;-65
2021/01/06 11:01:48;;;;;;;20.33;18.00;;;4.50;99.90;;;;;;5064725;28;20460;-66
2021/01/06 11:04:38;;;;;;;21.57;17.97;;;4.50;99.90;;;;;;5055489;28;20429;-66
2021/01/06 11:07:48;;;;;;;24.93;18.33;;;4.50;99.90;;;;;;5062205;28;20433;-66
2021/01/06 11:10:39;;;;;;;20.80;17.03;;;4.50;99.90;;;;;;5061842;28;20506;-66
2021/01/06 11:13:13;;;;;;;21.40;18.17;;;4.40;99.90;;;;;;5061597;28;20442;-66
2021/01/06 11:15:56;;;;;;;20.47;16.97;;;4.40;99.90;;;;;;5063369;28;20464;-66
2021/01/06 11:18:22;;;;;;;17.70;15.23;;;4.40;99.90;;;;;;5063418;28;20983;-66
2021/01/06 11:21:10;;;;;;;20.13;18.03;;;4.40;99.90;;;;;;5066579;28;20434;-66
2021/01/06 11:23:56;;;;;;;20.30;17.20;;;4.40;99.90;;;;;;5061345;28;20187;-66
2021/01/06 11:26:30;;;;;;;20.77;16.70;;;4.40;99.90;;;;;;5060500;28;20450;-66
2021/01/06 11:29:03;;;;;;;24.93;18.50;;;4.40;99.90;;;;;;5062162;28;20914;-66
2021/01/06 11:31:32;;;;;;;18.67;16.17;;;4.50;99.90;;;;;;5060557;28;20477;-66
2021/01/06 11:34:11;;;;;;;19.23;16.80;;;4.50;99.90;;;;;;5066129;28;20509;-65
2021/01/06 11:36:51;;;;;;;18.53;16.57;;;4.50;99.90;;;;;;5062192;28;20438;-66
2021/01/06 11:39:37;;;;;;;21.40;16.73;;;4.50;99.90;;;;;;5058747;28;20453;-66
2021/01/06 11:42:10;;;;;;;21.17;17.00;;;4.50;99.90;;;;;;5045370;28;20445;-66
2021/01/06 11:44:52;;;;;;;19.63;16.40;;;4.50;99.90;;;;;;5067441;28;20771;-66
2021/01/06 11:47:48;;;;;;;17.13;15.33;;;4.50;99.90;;;;;;5066105;28;20555;-65
2021/01/06 11:50:38;;;;;;;24.50;16.80;;;4.50;99.90;;;;;;5063785;28;20461;-66
2021/01/06 11:53:10;;;;;;;19.57;17.27;;;4.50;99.90;;;;;;5067243;28;20966;-66
2021/01/06 11:55:49;;;;;;;20.27;17.07;;;4.50;99.90;;;;;;5071437;28;20453;-66
2021/01/06 11:58:22;;;;;;;21.30;17.70;;;4.60;99.90;;;;;;5066116;28;20430;-65
2021/01/06 12:01:23;;;;;;;20.37;17.30;;;4.60;99.90;;;;;;5067942;28;20446;-66
2021/01/06 12:04:04;;;;;;;23.97;17.03;;;4.60;99.90;;;;;;5045298;28;20477;-65
2021/01/06 12:06:49;;;;;;;25.23;20.83;;;4.60;99.90;;;;;;5070608;28;20517;-66
2021/01/06 12:09:36;;;;;;;24.13;21.53;;;4.60;99.90;;;;;;5060738;28;20472;-66
2021/01/06 12:12:30;;;;;;;24.43;20.87;;;4.50;99.90;;;;;;5065139;28;20960;-66
2021/01/06 12:15:07;;;;;;;26.13;19.40;;;4.50;99.90;;;;;;5066039;28;20422;-66
2021/01/06 12:17:38;;;;;;;25.43;19.03;;;4.50;99.90;;;;;;5065445;28;20425;-66
2021/01/06 12:20:25;;;;;;;20.33;17.07;;;4.50;99.90;;;;;;5065841;28;20444;-66
2021/01/06 12:23:15;;;;;;;22.57;17.80;;;4.40;99.90;;;;;;5070382;28;20450;-66
2021/01/06 12:25:54;;;;;;;21.60;16.77;;;4.40;99.90;;;;;;5068835;28;20843;-66
2021/01/06 12:28:26;;;;;;;20.10;17.20;;;4.40;99.90;;;;;;5067021;28;20437;-66
2021/01/06 12:31:13;;;;;;;23.10;18.43;;;4.40;99.90;;;;;;5059907;28;21021;-66
2021/01/06 12:33:44;;;;;;;24.90;19.50;;;4.30;99.90;;;;;;5064329;28;20442;-66
2021/01/06 12:36:20;;;;;;;22.47;18.93;;;4.30;99.90;;;;;;5067715;28;20438;-66
2021/01/06 12:38:47;;;;;;;22.23;17.10;;;4.30;99.90;;;;;;5066345;28;20833;-66
2021/01/06 12:41:19;;;;;;;19.10;17.07;;;4.40;99.90;;;;;;5065157;28;20434;-66
2021/01/06 12:43:47;;;;;;;18.07;15.80;;;4.40;99.90;;;;;;5066127;28;20540;-66
2021/01/06 12:46:19;;;;;;;23.30;15.97;;;4.40;99.90;;;;;;5065188;28;20449;-66
2021/01/06 12:48:59;;;;;;;21.43;18.50;;;4.40;99.90;;;;;;5067394;28;20509;-66
2021/01/06 12:51:28;;;;;;;20.53;17.00;;;4.40;99.90;;;;;;5067366;28;20453;-66
2021/01/06 12:54:04;;;;;;;18.47;16.37;;;4.40;99.90;;;;;;5069066;28;20450;-66
2021/01/06 12:56:42;;;;;;;20.20;16.60;;;4.40;99.90;;;;;;5067425;28;20442;-66
2021/01/06 12:59:14;;;;;;;23.40;19.33;;;4.40;99.90;;;;;;5069769;28;20441;-66
2021/01/06 13:01:59;;;;;;;26.30;21.20;;;4.40;99.90;;;;;;5061356;28;20437;-66
2021/01/06 13:04:42;;;;;;;22.07;19.13;;;4.50;99.90;;;;;;5063818;28;20466;-65
2021/01/06 13:07:19;;;;;;;21.90;18.43;;;4.40;99.90;;;;;;5060972;28;20958;-65
2021/01/06 13:10:05;;;;;;;24.23;20.03;;;4.40;99.90;;;;;;5065397;28;20438;-65
2021/01/06 13:12:39;;;;;;;23.10;17.77;;;4.40;99.90;;;;;;5064352;28;20522;-65
2021/01/06 13:15:13;;;;;;;20.87;17.20;;;4.40;99.90;;;;;;5068075;28;20437;-65
2021/01/06 13:17:42;;;;;;;24.03;18.30;;;4.40;99.90;;;;;;5062941;28;20469;-65
2021/01/06 13:20:17;;;;;;;20.17;16.97;;;4.40;99.90;;;;;;5065198;28;20438;-65
2021/01/06 13:22:42;;;;;;;21.47;17.93;;;4.30;99.90;;;;;;5063633;28;21097;-65
2021/01/06 13:25:13;;;;;;;19.40;16.87;;;4.30;99.90;;;;;;5048391;28;20433;-65